sensor_id;sensor_type;location;lat;lon;timestamp;temperature;humidity
70246;SHT30;57637;49.272;8.590;2024-02-16T00:00:47;11.59;83.52
70246;SHT30;57637;49.272;8.590;2024-02-16T00:03:12;11.58;83.58
70246;SHT30;57637;49.272;8.590;2024-02-16T00:05:38;11.58;83.66
70246;SHT30;57637;49.272;8.590;2024-02-16T00:08:03;11.56;83.86
70246;SHT30;57637;49.272;8.590;2024-02-16T00:10:29;11.48;84.23
70246;SHT30;57637;49.272;8.590;2024-02-16T00:12:54;11.52;84.11
70246;SHT30;57637;49.272;8.590;2024-02-16T00:15:19;11.55;83.95
70246;SHT30;57637;49.272;8.590;2024-02-16T00:17:45;11.55;83.90
70246;SHT30;57637;49.272;8.590;2024-02-16T00:20:10;11.55;83.77
70246;SHT30;57637;49.272;8.590;2024-02-16T00:22:37;11.51;83.97
70246;SHT30;57637;49.272;8.590;2024-02-16T00:25:03;11.55;83.91
70246;SHT30;57637;49.272;8.590;2024-02-16T00:27:29;11.51;83.81
70246;SHT30;57637;49.272;8.590;2024-02-16T00:29:54;11.51;83.83
70246;SHT30;57637;49.272;8.590;2024-02-16T00:32:19;11.48;83.86
70246;SHT30;57637;49.272;8.590;2024-02-16T00:34:45;11.52;83.56
70246;SHT30;57637;49.272;8.590;2024-02-16T00:37:10;11.56;83.48
70246;SHT30;57637;49.272;8.590;2024-02-16T00:39:37;11.56;83.42
70246;SHT30;57637;49.272;8.590;2024-02-16T00:42:05;11.56;83.38
70246;SHT30;57637;49.272;8.590;2024-02-16T00:44:30;11.59;83.27
70246;SHT30;57637;49.272;8.590;2024-02-16T00:46:56;11.54;83.29
70246;SHT30;57637;49.272;8.590;2024-02-16T00:49:21;11.55;83.34
70246;SHT30;57637;49.272;8.590;2024-02-16T00:51:47;11.54;83.33
70246;SHT30;57637;49.272;8.590;2024-02-16T00:54:12;11.54;83.41
70246;SHT30;57637;49.272;8.590;2024-02-16T00:56:38;11.49;83.44
70246;SHT30;57637;49.272;8.590;2024-02-16T00:59:03;11.49;83.68
70246;SHT30;57637;49.272;8.590;2024-02-16T01:01:29;11.39;83.97
70246;SHT30;57637;49.272;8.590;2024-02-16T01:03:54;11.36;84.13
70246;SHT30;57637;49.272;8.590;2024-02-16T01:06:20;11.36;84.20
70246;SHT30;57637;49.272;8.590;2024-02-16T01:08:45;11.38;84.10
70246;SHT30;57637;49.272;8.590;2024-02-16T01:11:11;11.32;84.26
70246;SHT30;57637;49.272;8.590;2024-02-16T01:13:37;11.34;84.23
70246;SHT30;57637;49.272;8.590;2024-02-16T01:16:03;11.31;84.29
70246;SHT30;57637;49.272;8.590;2024-02-16T01:18:29;11.29;84.41
70246;SHT30;57637;49.272;8.590;2024-02-16T01:20:54;11.29;84.28
70246;SHT30;57637;49.272;8.590;2024-02-16T01:23:20;11.28;84.15
70246;SHT30;57637;49.272;8.590;2024-02-16T01:25:46;11.25;84.61
70246;SHT30;57637;49.272;8.590;2024-02-16T01:28:12;11.26;84.28
70246;SHT30;57637;49.272;8.590;2024-02-16T01:30:38;11.26;84.14
70246;SHT30;57637;49.272;8.590;2024-02-16T01:33:06;11.28;84.16
70246;SHT30;57637;49.272;8.590;2024-02-16T01:35:32;11.25;84.17
70246;SHT30;57637;49.272;8.590;2024-02-16T01:37:58;11.26;84.00
70246;SHT30;57637;49.272;8.590;2024-02-16T01:40:23;11.31;83.86
70246;SHT30;57637;49.272;8.590;2024-02-16T01:42:51;11.29;83.94
70246;SHT30;57637;49.272;8.590;2024-02-16T01:45:18;11.29;83.97
70246;SHT30;57637;49.272;8.590;2024-02-16T01:47:43;11.28;84.04
70246;SHT30;57637;49.272;8.590;2024-02-16T01:50:11;11.28;83.91
70246;SHT30;57637;49.272;8.590;2024-02-16T01:52:37;11.22;84.26
70246;SHT30;57637;49.272;8.590;2024-02-16T01:55:06;11.15;85.07
70246;SHT30;57637;49.272;8.590;2024-02-16T01:57:35;11.10;85.39
70246;SHT30;57637;49.272;8.590;2024-02-16T02:00:01;11.01;85.68
70246;SHT30;57637;49.272;8.590;2024-02-16T02:02:28;10.98;85.71
70246;SHT30;57637;49.272;8.590;2024-02-16T02:04:53;10.97;85.63
70246;SHT30;57637;49.272;8.590;2024-02-16T02:07:18;10.95;85.60
70246;SHT30;57637;49.272;8.590;2024-02-16T02:09:44;10.98;85.56
70246;SHT30;57637;49.272;8.590;2024-02-16T02:12:09;11.00;85.43
70246;SHT30;57637;49.272;8.590;2024-02-16T02:14:35;10.98;85.51
70246;SHT30;57637;49.272;8.590;2024-02-16T02:17:02;10.95;85.55
70246;SHT30;57637;49.272;8.590;2024-02-16T02:19:28;10.93;85.77
70246;SHT30;57637;49.272;8.590;2024-02-16T02:21:54;10.90;85.81
70246;SHT30;57637;49.272;8.590;2024-02-16T02:24:20;10.90;85.85
70246;SHT30;57637;49.272;8.590;2024-02-16T02:26:46;10.87;85.70
70246;SHT30;57637;49.272;8.590;2024-02-16T02:29:11;10.74;86.29
70246;SHT30;57637;49.272;8.590;2024-02-16T02:31:37;10.71;86.46
70246;SHT30;57637;49.272;8.590;2024-02-16T02:34:02;10.70;86.65
70246;SHT30;57637;49.272;8.590;2024-02-16T02:36:27;10.70;86.69
70246;SHT30;57637;49.272;8.590;2024-02-16T02:38:52;10.70;86.71
70246;SHT30;57637;49.272;8.590;2024-02-16T02:41:18;10.71;86.66
70246;SHT30;57637;49.272;8.590;2024-02-16T02:43:45;10.67;86.86
70246;SHT30;57637;49.272;8.590;2024-02-16T02:46:16;10.65;86.89
70246;SHT30;57637;49.272;8.590;2024-02-16T02:48:43;10.68;86.97
70246;SHT30;57637;49.272;8.590;2024-02-16T02:51:09;10.70;86.87
70246;SHT30;57637;49.272;8.590;2024-02-16T02:53:35;10.65;86.97
70246;SHT30;57637;49.272;8.590;2024-02-16T02:56:00;10.65;86.90
70246;SHT30;57637;49.272;8.590;2024-02-16T02:58:26;10.67;86.84
70246;SHT30;57637;49.272;8.590;2024-02-16T03:00:51;10.68;86.83
70246;SHT30;57637;49.272;8.590;2024-02-16T03:03:16;10.64;86.86
70246;SHT30;57637;49.272;8.590;2024-02-16T03:05:42;10.63;86.97
70246;SHT30;57637;49.272;8.590;2024-02-16T03:08:07;10.59;87.21
70246;SHT30;57637;49.272;8.590;2024-02-16T03:10:32;10.50;87.27
70246;SHT30;57637;49.272;8.590;2024-02-16T03:13:00;10.37;87.64
70246;SHT30;57637;49.272;8.590;2024-02-16T03:15:26;10.32;87.87
70246;SHT30;57637;49.272;8.590;2024-02-16T03:17:51;10.23;88.04
70246;SHT30;57637;49.272;8.590;2024-02-16T03:20:16;10.17;88.25
70246;SHT30;57637;49.272;8.590;2024-02-16T03:22:42;10.13;88.39
70246;SHT30;57637;49.272;8.590;2024-02-16T03:25:07;10.06;88.37
70246;SHT30;57637;49.272;8.590;2024-02-16T03:27:33;10.03;88.53
70246;SHT30;57637;49.272;8.590;2024-02-16T03:29:58;10.02;88.67
70246;SHT30;57637;49.272;8.590;2024-02-16T03:32:24;10.02;88.68
70246;SHT30;57637;49.272;8.590;2024-02-16T03:34:49;9.99;88.71
70246;SHT30;57637;49.272;8.590;2024-02-16T03:37:15;10.01;88.75
70246;SHT30;57637;49.272;8.590;2024-02-16T03:39:40;10.05;88.53
70246;SHT30;57637;49.272;8.590;2024-02-16T03:42:06;10.08;88.47
70246;SHT30;57637;49.272;8.590;2024-02-16T03:44:31;10.09;88.32
70246;SHT30;57637;49.272;8.590;2024-02-16T03:46:57;10.08;88.31
70246;SHT30;57637;49.272;8.590;2024-02-16T03:49:22;10.09;88.32
70246;SHT30;57637;49.272;8.590;2024-02-16T03:51:48;10.08;88.37
70246;SHT30;57637;49.272;8.590;2024-02-16T03:54:13;10.09;88.29
70246;SHT30;57637;49.272;8.590;2024-02-16T03:56:38;10.06;88.34
70246;SHT30;57637;49.272;8.590;2024-02-16T03:59:03;10.06;88.46
70246;SHT30;57637;49.272;8.590;2024-02-16T04:01:30;10.05;88.55
70246;SHT30;57637;49.272;8.590;2024-02-16T04:03:56;10.06;88.56
70246;SHT30;57637;49.272;8.590;2024-02-16T04:06:21;10.06;88.62
70246;SHT30;57637;49.272;8.590;2024-02-16T04:08:46;10.05;88.62
70246;SHT30;57637;49.272;8.590;2024-02-16T04:11:13;10.03;88.55
70246;SHT30;57637;49.272;8.590;2024-02-16T04:13:40;10.06;88.56
70246;SHT30;57637;49.272;8.590;2024-02-16T04:16:06;10.02;88.69
70246;SHT30;57637;49.272;8.590;2024-02-16T04:18:31;10.03;88.70
70246;SHT30;57637;49.272;8.590;2024-02-16T04:20:56;10.02;88.48
70246;SHT30;57637;49.272;8.590;2024-02-16T04:23:22;9.95;88.83
70246;SHT30;57637;49.272;8.590;2024-02-16T04:25:47;9.89;88.82
70246;SHT30;57637;49.272;8.590;2024-02-16T04:28:12;9.86;88.87
70246;SHT30;57637;49.272;8.590;2024-02-16T04:30:38;9.75;89.19
70246;SHT30;57637;49.272;8.590;2024-02-16T04:33:04;9.69;89.36
70246;SHT30;57637;49.272;8.590;2024-02-16T04:35:29;9.65;89.43
70246;SHT30;57637;49.272;8.590;2024-02-16T04:37:55;9.59;89.52
70246;SHT30;57637;49.272;8.590;2024-02-16T04:40:20;9.57;89.59
70246;SHT30;57637;49.272;8.590;2024-02-16T04:42:45;9.55;89.79
70246;SHT30;57637;49.272;8.590;2024-02-16T04:45:11;9.58;89.82
70246;SHT30;57637;49.272;8.590;2024-02-16T04:47:38;9.63;89.58
70246;SHT30;57637;49.272;8.590;2024-02-16T04:50:03;9.68;89.44
70246;SHT30;57637;49.272;8.590;2024-02-16T04:52:30;9.71;89.33
70246;SHT30;57637;49.272;8.590;2024-02-16T04:54:56;9.75;89.20
70246;SHT30;57637;49.272;8.590;2024-02-16T04:57:21;9.74;89.16
70246;SHT30;57637;49.272;8.590;2024-02-16T04:59:47;9.81;89.01
70246;SHT30;57637;49.272;8.590;2024-02-16T05:02:12;9.83;88.90
70246;SHT30;57637;49.272;8.590;2024-02-16T05:04:37;9.86;88.82
70246;SHT30;57637;49.272;8.590;2024-02-16T05:07:03;9.85;88.79
70246;SHT30;57637;49.272;8.590;2024-02-16T05:09:31;9.83;88.76
70246;SHT30;57637;49.272;8.590;2024-02-16T05:11:57;9.83;88.80
70246;SHT30;57637;49.272;8.590;2024-02-16T05:14:22;9.88;88.76
70246;SHT30;57637;49.272;8.590;2024-02-16T05:16:49;9.85;88.72
70246;SHT30;57637;49.272;8.590;2024-02-16T05:19:15;9.86;88.77
70246;SHT30;57637;49.272;8.590;2024-02-16T05:21:40;9.81;88.87
70246;SHT30;57637;49.272;8.590;2024-02-16T05:24:06;9.75;89.07
70246;SHT30;57637;49.272;8.590;2024-02-16T05:26:31;9.72;89.15
70246;SHT30;57637;49.272;8.590;2024-02-16T05:28:56;9.67;89.04
70246;SHT30;57637;49.272;8.590;2024-02-16T05:31:22;9.57;88.96
70246;SHT30;57637;49.272;8.590;2024-02-16T05:33:48;9.47;89.18
70246;SHT30;57637;49.272;8.590;2024-02-16T05:36:18;9.38;89.55
70246;SHT30;57637;49.272;8.590;2024-02-16T05:38:45;9.42;89.60
70246;SHT30;57637;49.272;8.590;2024-02-16T05:41:11;9.42;89.69
70246;SHT30;57637;49.272;8.590;2024-02-16T05:43:37;9.44;89.74
70246;SHT30;57637;49.272;8.590;2024-02-16T05:46:04;9.42;89.79
70246;SHT30;57637;49.272;8.590;2024-02-16T05:48:32;9.44;89.81
70246;SHT30;57637;49.272;8.590;2024-02-16T05:51:00;9.44;90.08
70246;SHT30;57637;49.272;8.590;2024-02-16T05:53:26;9.47;89.97
70246;SHT30;57637;49.272;8.590;2024-02-16T05:55:52;9.42;90.15
70246;SHT30;57637;49.272;8.590;2024-02-16T05:58:18;9.40;90.21
70246;SHT30;57637;49.272;8.590;2024-02-16T06:00:43;9.38;90.33
70246;SHT30;57637;49.272;8.590;2024-02-16T06:03:08;9.28;90.22
70246;SHT30;57637;49.272;8.590;2024-02-16T06:05:34;9.28;90.30
70246;SHT30;57637;49.272;8.590;2024-02-16T06:08:00;9.26;90.49
70246;SHT30;57637;49.272;8.590;2024-02-16T06:10:25;9.26;90.51
70246;SHT30;57637;49.272;8.590;2024-02-16T06:12:51;9.23;90.58
70246;SHT30;57637;49.272;8.590;2024-02-16T06:15:16;9.20;90.55
70246;SHT30;57637;49.272;8.590;2024-02-16T06:17:42;9.20;90.58
70246;SHT30;57637;49.272;8.590;2024-02-16T06:20:07;9.18;90.66
70246;SHT30;57637;49.272;8.590;2024-02-16T06:22:35;9.17;90.67
70246;SHT30;57637;49.272;8.590;2024-02-16T06:25:01;9.20;90.69
70246;SHT30;57637;49.272;8.590;2024-02-16T06:27:26;9.21;90.66
70246;SHT30;57637;49.272;8.590;2024-02-16T06:29:52;9.17;90.51
70246;SHT30;57637;49.272;8.590;2024-02-16T06:32:17;9.18;90.47
70246;SHT30;57637;49.272;8.590;2024-02-16T06:34:43;9.13;90.70
70246;SHT30;57637;49.272;8.590;2024-02-16T06:37:10;9.17;90.65
70246;SHT30;57637;49.272;8.590;2024-02-16T06:39:36;9.18;90.73
70246;SHT30;57637;49.272;8.590;2024-02-16T06:42:01;9.27;90.49
70246;SHT30;57637;49.272;8.590;2024-02-16T06:44:26;9.28;90.38
70246;SHT30;57637;49.272;8.590;2024-02-16T06:46:51;9.34;90.11
70246;SHT30;57637;49.272;8.590;2024-02-16T06:49:17;9.37;89.97
70246;SHT30;57637;49.272;8.590;2024-02-16T06:51:42;9.42;89.68
70246;SHT30;57637;49.272;8.590;2024-02-16T06:54:09;9.47;89.49
70246;SHT30;57637;49.272;8.590;2024-02-16T06:56:35;9.51;89.33
70246;SHT30;57637;49.272;8.590;2024-02-16T06:59:00;9.55;89.18
70246;SHT30;57637;49.272;8.590;2024-02-16T07:01:26;9.57;89.14
70246;SHT30;57637;49.272;8.590;2024-02-16T07:03:52;9.59;89.05
70246;SHT30;57637;49.272;8.590;2024-02-16T07:06:18;9.65;88.84
70246;SHT30;57637;49.272;8.590;2024-02-16T07:08:43;9.69;88.85
70246;SHT30;57637;49.272;8.590;2024-02-16T07:11:09;9.75;88.80
70246;SHT30;57637;49.272;8.590;2024-02-16T07:13:38;9.79;88.55
70246;SHT30;57637;49.272;8.590;2024-02-16T07:16:05;9.91;88.03
70246;SHT30;57637;49.272;8.590;2024-02-16T07:18:34;10.02;87.82
70246;SHT30;57637;49.272;8.590;2024-02-16T07:20:59;10.19;87.09
70246;SHT30;57637;49.272;8.590;2024-02-16T07:23:25;10.36;87.01
70246;SHT30;57637;49.272;8.590;2024-02-16T07:25:51;10.60;86.43
70246;SHT30;57637;49.272;8.590;2024-02-16T07:28:16;10.74;85.56
70246;SHT30;57637;49.272;8.590;2024-02-16T07:30:41;10.83;85.07
70246;SHT30;57637;49.272;8.590;2024-02-16T07:33:07;11.00;84.68
70246;SHT30;57637;49.272;8.590;2024-02-16T07:35:36;11.08;84.14
70246;SHT30;57637;49.272;8.590;2024-02-16T07:38:02;11.22;84.18
70246;SHT30;57637;49.272;8.590;2024-02-16T07:40:28;11.36;83.32
70246;SHT30;57637;49.272;8.590;2024-02-16T07:42:53;11.45;83.12
70246;SHT30;57637;49.272;8.590;2024-02-16T07:45:19;11.38;83.05
70246;SHT30;57637;49.272;8.590;2024-02-16T07:47:45;11.73;82.76
70246;SHT30;57637;49.272;8.590;2024-02-16T07:50:10;11.87;82.24
70246;SHT30;57637;49.272;8.590;2024-02-16T07:52:37;12.10;81.72
70246;SHT30;57637;49.272;8.590;2024-02-16T07:55:04;12.24;81.23
70246;SHT30;57637;49.272;8.590;2024-02-16T07:57:30;12.31;81.52
70246;SHT30;57637;49.272;8.590;2024-02-16T07:59:56;12.21;81.97
70246;SHT30;57637;49.272;8.590;2024-02-16T08:02:21;12.03;82.76
70246;SHT30;57637;49.272;8.590;2024-02-16T08:04:47;11.86;84.16
70246;SHT30;57637;49.272;8.590;2024-02-16T08:07:13;11.65;84.66
70246;SHT30;57637;49.272;8.590;2024-02-16T08:09:38;11.58;84.82
70246;SHT30;57637;49.272;8.590;2024-02-16T08:12:04;11.32;85.89
70246;SHT30;57637;49.272;8.590;2024-02-16T08:14:32;11.38;86.06
70246;SHT30;57637;49.272;8.590;2024-02-16T08:16:58;11.32;86.87
70246;SHT30;57637;49.272;8.590;2024-02-16T08:19:24;11.26;87.22
70246;SHT30;57637;49.272;8.590;2024-02-16T08:21:58;11.25;87.48
70246;SHT30;57637;49.272;8.590;2024-02-16T08:24:23;11.35;87.46
70246;SHT30;57637;49.272;8.590;2024-02-16T08:26:48;11.40;87.78
70246;SHT30;57637;49.272;8.590;2024-02-16T08:29:14;11.45;87.62
70246;SHT30;57637;49.272;8.590;2024-02-16T08:31:39;11.46;87.86
70246;SHT30;57637;49.272;8.590;2024-02-16T08:34:04;11.54;87.46
70246;SHT30;57637;49.272;8.590;2024-02-16T08:36:32;11.58;87.12
70246;SHT30;57637;49.272;8.590;2024-02-16T08:38:59;11.61;86.99
70246;SHT30;57637;49.272;8.590;2024-02-16T08:41:24;11.67;86.50
70246;SHT30;57637;49.272;8.590;2024-02-16T08:43:49;11.70;86.52
70246;SHT30;57637;49.272;8.590;2024-02-16T08:46:15;11.73;86.38
70246;SHT30;57637;49.272;8.590;2024-02-16T08:48:41;11.86;85.88
70246;SHT30;57637;49.272;8.590;2024-02-16T08:51:06;11.83;85.02
70246;SHT30;57637;49.272;8.590;2024-02-16T08:53:31;11.99;84.78
70246;SHT30;57637;49.272;8.590;2024-02-16T08:55:57;12.07;84.21
70246;SHT30;57637;49.272;8.590;2024-02-16T08:58:22;12.13;83.99
70246;SHT30;57637;49.272;8.590;2024-02-16T09:00:47;12.24;83.55
70246;SHT30;57637;49.272;8.590;2024-02-16T09:03:14;12.33;82.79
70246;SHT30;57637;49.272;8.590;2024-02-16T09:05:41;12.51;82.53
70246;SHT30;57637;49.272;8.590;2024-02-16T09:08:08;12.60;81.86
70246;SHT30;57637;49.272;8.590;2024-02-16T09:10:34;12.72;81.91
70246;SHT30;57637;49.272;8.590;2024-02-16T09:12:59;12.82;81.32
70246;SHT30;57637;49.272;8.590;2024-02-16T09:15:25;12.91;80.81
70246;SHT30;57637;49.272;8.590;2024-02-16T09:17:50;13.08;80.32
70246;SHT30;57637;49.272;8.590;2024-02-16T09:20:16;13.22;80.11
70246;SHT30;57637;49.272;8.590;2024-02-16T09:22:47;13.32;79.78
70246;SHT30;57637;49.272;8.590;2024-02-16T09:25:13;13.42;79.20
70246;SHT30;57637;49.272;8.590;2024-02-16T09:27:39;13.44;78.69
70246;SHT30;57637;49.272;8.590;2024-02-16T09:30:07;13.47;78.50
70246;SHT30;57637;49.272;8.590;2024-02-16T09:32:32;13.77;77.87
70246;SHT30;57637;49.272;8.590;2024-02-16T09:34:57;14.05;76.77
70246;SHT30;57637;49.272;8.590;2024-02-16T09:37:23;14.17;75.97
70246;SHT30;57637;49.272;8.590;2024-02-16T09:39:48;14.21;75.90
70246;SHT30;57637;49.272;8.590;2024-02-16T09:42:13;14.22;75.57
70246;SHT30;57637;49.272;8.590;2024-02-16T09:44:39;14.20;75.25
70246;SHT30;57637;49.272;8.590;2024-02-16T09:47:06;14.18;75.37
70246;SHT30;57637;49.272;8.590;2024-02-16T09:49:35;14.22;75.35
70246;SHT30;57637;49.272;8.590;2024-02-16T09:52:02;14.31;75.09
70246;SHT30;57637;49.272;8.590;2024-02-16T09:54:32;14.56;74.49
70246;SHT30;57637;49.272;8.590;2024-02-16T09:56:59;14.62;74.24
70246;SHT30;57637;49.272;8.590;2024-02-16T09:59:24;15.00;73.31
70246;SHT30;57637;49.272;8.590;2024-02-16T10:01:58;15.34;72.64
70246;SHT30;57637;49.272;8.590;2024-02-16T10:04:24;15.60;71.21
70246;SHT30;57637;49.272;8.590;2024-02-16T10:06:50;15.80;70.46
70246;SHT30;57637;49.272;8.590;2024-02-16T10:09:22;15.88;70.01
70246;SHT30;57637;49.272;8.590;2024-02-16T10:11:51;16.15;70.05
70246;SHT30;57637;49.272;8.590;2024-02-16T10:14:16;16.18;69.41
70246;SHT30;57637;49.272;8.590;2024-02-16T10:16:44;16.26;69.34
70246;SHT30;57637;49.272;8.590;2024-02-16T10:19:09;16.28;69.60
70246;SHT30;57637;49.272;8.590;2024-02-16T10:21:37;16.48;68.88
70246;SHT30;57637;49.272;8.590;2024-02-16T10:24:08;16.70;68.28
70246;SHT30;57637;49.272;8.590;2024-02-16T10:26:34;16.69;67.93
70246;SHT30;57637;49.272;8.590;2024-02-16T10:29:04;16.81;68.53
70246;SHT30;57637;49.272;8.590;2024-02-16T10:31:31;17.03;67.61
70246;SHT30;57637;49.272;8.590;2024-02-16T10:34:01;17.13;67.01
70246;SHT30;57637;49.272;8.590;2024-02-16T10:36:31;17.23;65.98
70246;SHT30;57637;49.272;8.590;2024-02-16T10:38:57;17.44;64.99
70246;SHT30;57637;49.272;8.590;2024-02-16T10:41:25;17.52;65.11
70246;SHT30;57637;49.272;8.590;2024-02-16T10:43:53;17.58;64.81
70246;SHT30;57637;49.272;8.590;2024-02-16T10:46:20;17.68;64.01
70246;SHT30;57637;49.272;8.590;2024-02-16T10:48:45;18.02;64.16
70246;SHT30;57637;49.272;8.590;2024-02-16T10:51:11;18.19;63.30
70246;SHT30;57637;49.272;8.590;2024-02-16T10:53:38;18.25;62.87
70246;SHT30;57637;49.272;8.590;2024-02-16T10:56:06;18.41;62.80
70246;SHT30;57637;49.272;8.590;2024-02-16T10:58:32;18.34;61.79
70246;SHT30;57637;49.272;8.590;2024-02-16T11:01:07;18.36;62.45
70246;SHT30;57637;49.272;8.590;2024-02-16T11:03:33;18.22;62.29
70246;SHT30;57637;49.272;8.590;2024-02-16T11:05:58;18.32;62.37
70246;SHT30;57637;49.272;8.590;2024-02-16T11:08:24;18.32;62.69
70246;SHT30;57637;49.272;8.590;2024-02-16T11:10:53;18.27;62.27
70246;SHT30;57637;49.272;8.590;2024-02-16T11:13:24;18.26;62.43
70246;SHT30;57637;49.272;8.590;2024-02-16T11:15:56;18.16;62.87
70246;SHT30;57637;49.272;8.590;2024-02-16T11:18:27;18.06;63.17
70246;SHT30;57637;49.272;8.590;2024-02-16T11:20:53;17.95;63.44
70246;SHT30;57637;49.272;8.590;2024-02-16T11:23:25;17.78;63.65
70246;SHT30;57637;49.272;8.590;2024-02-16T11:25:53;17.69;63.41
70246;SHT30;57637;49.272;8.590;2024-02-16T11:28:18;17.66;64.07
70246;SHT30;57637;49.272;8.590;2024-02-16T11:30:44;17.56;64.16
70246;SHT30;57637;49.272;8.590;2024-02-16T11:33:12;17.72;64.91
70246;SHT30;57637;49.272;8.590;2024-02-16T11:35:38;17.76;64.53
70246;SHT30;57637;49.272;8.590;2024-02-16T11:38:04;17.90;64.04
70246;SHT30;57637;49.272;8.590;2024-02-16T11:40:30;18.00;64.06
70246;SHT30;57637;49.272;8.590;2024-02-16T11:43:01;18.03;64.00
70246;SHT30;57637;49.272;8.590;2024-02-16T11:45:27;18.12;63.17
70246;SHT30;57637;49.272;8.590;2024-02-16T11:48:03;18.36;63.27
70246;SHT30;57637;49.272;8.590;2024-02-16T11:50:29;18.49;62.71
70246;SHT30;57637;49.272;8.590;2024-02-16T11:52:55;18.63;62.42
70246;SHT30;57637;49.272;8.590;2024-02-16T11:55:20;18.74;62.30
70246;SHT30;57637;49.272;8.590;2024-02-16T11:57:46;18.75;61.97
70246;SHT30;57637;49.272;8.590;2024-02-16T12:00:15;18.67;62.38
70246;SHT30;57637;49.272;8.590;2024-02-16T12:02:41;18.67;62.77
70246;SHT30;57637;49.272;8.590;2024-02-16T12:05:06;18.72;62.76
70246;SHT30;57637;49.272;8.590;2024-02-16T12:07:32;18.87;62.76
70246;SHT30;57637;49.272;8.590;2024-02-16T12:09:59;18.78;62.49
70246;SHT30;57637;49.272;8.590;2024-02-16T12:12:26;18.83;62.81
70246;SHT30;57637;49.272;8.590;2024-02-16T12:14:52;18.68;62.37
70246;SHT30;57637;49.272;8.590;2024-02-16T12:17:18;18.75;62.89
70246;SHT30;57637;49.272;8.590;2024-02-16T12:19:44;18.61;63.05
70246;SHT30;57637;49.272;8.590;2024-02-16T12:22:10;18.63;63.12
70246;SHT30;57637;49.272;8.590;2024-02-16T12:24:37;18.60;63.10
70246;SHT30;57637;49.272;8.590;2024-02-16T12:27:02;18.63;63.15
70246;SHT30;57637;49.272;8.590;2024-02-16T12:29:28;18.65;63.38
70246;SHT30;57637;49.272;8.590;2024-02-16T12:31:53;18.54;63.60
70246;SHT30;57637;49.272;8.590;2024-02-16T12:34:18;18.36;63.79
70246;SHT30;57637;49.272;8.590;2024-02-16T12:36:43;18.47;63.48
70246;SHT30;57637;49.272;8.590;2024-02-16T12:39:10;18.41;64.07
70246;SHT30;57637;49.272;8.590;2024-02-16T12:41:37;18.36;63.97
70246;SHT30;57637;49.272;8.590;2024-02-16T12:44:03;18.22;64.56
70246;SHT30;57637;49.272;8.590;2024-02-16T12:46:29;18.22;64.63
70246;SHT30;57637;49.272;8.590;2024-02-16T12:48:55;18.07;65.33
70246;SHT30;57637;49.272;8.590;2024-02-16T12:51:20;18.05;64.96
70246;SHT30;57637;49.272;8.590;2024-02-16T12:53:46;17.88;65.04
70246;SHT30;57637;49.272;8.590;2024-02-16T12:56:11;17.89;65.88
70246;SHT30;57637;49.272;8.590;2024-02-16T12:58:36;17.89;65.47
70246;SHT30;57637;49.272;8.590;2024-02-16T13:01:05;17.85;65.53
70246;SHT30;57637;49.272;8.590;2024-02-16T13:03:34;17.85;66.27
70246;SHT30;57637;49.272;8.590;2024-02-16T13:06:00;17.85;66.10
70246;SHT30;57637;49.272;8.590;2024-02-16T13:08:27;17.89;66.16
70246;SHT30;57637;49.272;8.590;2024-02-16T13:10:53;17.99;66.20
70246;SHT30;57637;49.272;8.590;2024-02-16T13:13:19;17.97;65.75
70246;SHT30;57637;49.272;8.590;2024-02-16T13:15:45;17.93;65.71
70246;SHT30;57637;49.272;8.590;2024-02-16T13:18:12;17.92;66.26
70246;SHT30;57637;49.272;8.590;2024-02-16T13:20:38;18.06;65.98
70246;SHT30;57637;49.272;8.590;2024-02-16T13:23:03;17.96;65.43
70246;SHT30;57637;49.272;8.590;2024-02-16T13:25:28;18.12;66.21
70246;SHT30;57637;49.272;8.590;2024-02-16T13:27:54;17.95;66.29
70246;SHT30;57637;49.272;8.590;2024-02-16T13:30:19;18.12;66.04
70246;SHT30;57637;49.272;8.590;2024-02-16T13:32:45;18.20;65.97
70246;SHT30;57637;49.272;8.590;2024-02-16T13:35:10;18.17;65.76
70246;SHT30;57637;49.272;8.590;2024-02-16T13:37:35;18.10;66.31
70246;SHT30;57637;49.272;8.590;2024-02-16T13:40:02;18.30;66.29
70246;SHT30;57637;49.272;8.590;2024-02-16T13:42:32;18.34;65.58
70246;SHT30;57637;49.272;8.590;2024-02-16T13:44:57;18.33;65.60
70246;SHT30;57637;49.272;8.590;2024-02-16T13:47:23;18.27;66.12
70246;SHT30;57637;49.272;8.590;2024-02-16T13:49:48;18.20;65.87
70246;SHT30;57637;49.272;8.590;2024-02-16T13:52:14;18.17;66.14
70246;SHT30;57637;49.272;8.590;2024-02-16T13:54:40;18.25;65.84
70246;SHT30;57637;49.272;8.590;2024-02-16T13:57:05;18.36;66.26
70246;SHT30;57637;49.272;8.590;2024-02-16T13:59:31;18.07;66.79
70246;SHT30;57637;49.272;8.590;2024-02-16T14:01:58;17.99;66.67
70246;SHT30;57637;49.272;8.590;2024-02-16T14:04:24;17.83;66.90
70246;SHT30;57637;49.272;8.590;2024-02-16T14:06:51;17.69;67.34
70246;SHT30;57637;49.272;8.590;2024-02-16T14:09:17;17.68;67.64
70246;SHT30;57637;49.272;8.590;2024-02-16T14:11:44;17.62;67.75
70246;SHT30;57637;49.272;8.590;2024-02-16T14:14:10;17.66;67.91
70246;SHT30;57637;49.272;8.590;2024-02-16T14:16:35;17.66;68.04
70246;SHT30;57637;49.272;8.590;2024-02-16T14:19:01;17.55;67.94
70246;SHT30;57637;49.272;8.590;2024-02-16T14:21:26;17.49;68.29
70246;SHT30;57637;49.272;8.590;2024-02-16T14:23:51;17.48;68.46
70246;SHT30;57637;49.272;8.590;2024-02-16T14:26:17;17.39;68.86
70246;SHT30;57637;49.272;8.590;2024-02-16T14:28:44;17.35;69.31
70246;SHT30;57637;49.272;8.590;2024-02-16T14:31:09;17.31;69.73
70246;SHT30;57637;49.272;8.590;2024-02-16T14:33:35;17.24;69.37
70246;SHT30;57637;49.272;8.590;2024-02-16T14:36:03;17.28;69.34
70246;SHT30;57637;49.272;8.590;2024-02-16T14:38:29;17.17;69.10
70246;SHT30;57637;49.272;8.590;2024-02-16T14:40:55;17.17;69.55
70246;SHT30;57637;49.272;8.590;2024-02-16T14:43:21;17.07;70.20
70246;SHT30;57637;49.272;8.590;2024-02-16T14:45:46;17.11;69.83
70246;SHT30;57637;49.272;8.590;2024-02-16T14:48:11;17.08;70.08
70246;SHT30;57637;49.272;8.590;2024-02-16T14:50:37;17.13;70.00
70246;SHT30;57637;49.272;8.590;2024-02-16T14:53:02;17.11;70.44
70246;SHT30;57637;49.272;8.590;2024-02-16T14:55:30;17.11;70.29
70246;SHT30;57637;49.272;8.590;2024-02-16T14:57:55;16.95;70.65
70246;SHT30;57637;49.272;8.590;2024-02-16T15:00:20;16.91;70.88
70246;SHT30;57637;49.272;8.590;2024-02-16T15:02:48;16.83;71.68
70246;SHT30;57637;49.272;8.590;2024-02-16T15:05:13;16.79;71.61
70246;SHT30;57637;49.272;8.590;2024-02-16T15:07:39;16.73;72.06
70246;SHT30;57637;49.272;8.590;2024-02-16T15:10:04;16.67;71.59
70246;SHT30;57637;49.272;8.590;2024-02-16T15:12:30;16.57;71.75
70246;SHT30;57637;49.272;8.590;2024-02-16T15:14:56;16.43;71.79
70246;SHT30;57637;49.272;8.590;2024-02-16T15:17:21;16.38;72.23
70246;SHT30;57637;49.272;8.590;2024-02-16T15:19:46;16.30;72.13
70246;SHT30;57637;49.272;8.590;2024-02-16T15:22:12;16.25;72.19
70246;SHT30;57637;49.272;8.590;2024-02-16T15:24:37;16.19;72.35
70246;SHT30;57637;49.272;8.590;2024-02-16T15:27:03;16.18;72.63